Time;durP1;ratioP1;P1;durP2;ratioP2;P2;SDS_P1;SDS_P2;PMS_P1;PMS_P2;Temp;Humidity;BMP_temperature;BMP_pressure;BME280_temperature;BME280_humidity;BME280_pressure;Samples;Min_cycle;Max_cycle;Signal;HPM_P1;HPM_P2
2022/04/01 00:01:09;;;;;;;1.50;1.40;;;;;;;;;;6153616;28;20770;-76
2022/04/01 00:04:30;;;;;;;1.87;1.40;;;;;;;;;;6158695;28;20562;-76
2022/04/01 00:07:51;;;;;;;1.83;1.10;;;;;;;;;;6154991;28;20608;-77
2022/04/01 00:11:14;;;;;;;1.47;1.37;;;;;;;;;;6147894;28;20235;-79
2022/04/01 00:14:35;;;;;;;3.23;1.57;;;;;;;;;;6147650;28;20238;-77
2022/04/01 00:17:56;;;;;;;3.93;1.40;;;;;;;;;;6150741;28;20227;-76
2022/04/01 00:21:17;;;;;;;1.00;1.00;;;;;;;;;;6156439;28;20234;-77
2022/04/01 00:24:39;;;;;;;1.40;1.30;;;;;;;;;;6155351;28;20250;-76
2022/04/01 00:28:01;;;;;;;1.47;1.33;;;;;;;;;;6156616;28;20330;-78
2022/04/01 00:31:22;;;;;;;1.93;1.40;;;;;;;;;;6144719;28;20672;-75
2022/04/01 00:34:45;;;;;;;1.57;1.33;;;;;;;;;;6145145;28;20255;-75
2022/04/01 00:38:06;;;;;;;2.60;1.30;;;;;;;;;;6163564;28;20242;-75
2022/04/01 00:41:27;;;;;;;1.97;1.37;;;;;;;;;;6144420;28;20277;-77
2022/04/01 00:44:50;;;;;;;1.50;1.40;;;;;;;;;;6145954;28;20234;-75
2022/04/01 00:48:11;;;;;;;2.70;1.80;;;;;;;;;;6142342;28;20242;-76
2022/04/01 00:51:32;;;;;;;2.00;1.30;;;;;;;;;;6146817;28;20223;-76
2022/04/01 00:54:53;;;;;;;1.67;1.57;;;;;;;;;;6151499;28;20252;-76
2022/04/01 00:58:14;;;;;;;1.60;1.40;;;;;;;;;;6142189;28;20238;-76
2022/04/01 01:01:37;;;;;;;2.23;2.03;;;;;;;;;;6147124;28;20310;-76
2022/04/01 01:04:58;;;;;;;1.60;1.50;;;;;;;;;;6150560;28;20237;-77
2022/04/01 01:08:20;;;;;;;2.03;1.33;;;;;;;;;;6133460;28;20662;-77
2022/04/01 01:11:41;;;;;;;1.83;1.50;;;;;;;;;;6156578;28;20238;-75
2022/04/01 01:15:09;;;;;;;1.67;1.30;;;;;;;;;;6142454;28;20246;-75
2022/04/01 01:18:31;;;;;;;1.20;1.10;;;;;;;;;;6141545;28;20239;-75
2022/04/01 01:21:54;;;;;;;3.33;1.60;;;;;;;;;;6143066;28;20563;-75
2022/04/01 01:25:17;;;;;;;1.90;1.10;;;;;;;;;;6131756;28;20234;-77
2022/04/01 01:28:38;;;;;;;1.43;1.33;;;;;;;;;;6143141;28;20506;-76
2022/04/01 01:32:01;;;;;;;1.90;1.57;;;;;;;;;;6140300;28;20239;-77
2022/04/01 01:35:23;;;;;;;2.87;1.40;;;;;;;;;;6154420;28;20259;-76
2022/04/01 01:38:44;;;;;;;0.93;0.93;;;;;;;;;;6149518;28;20240;-77
2022/04/01 01:42:07;;;;;;;7.07;1.93;;;;;;;;;;6120610;28;20231;-76
2022/04/01 01:45:29;;;;;;;1.57;1.47;;;;;;;;;;6138021;28;20238;-77
2022/04/01 01:48:50;;;;;;;1.63;1.53;;;;;;;;;;6145258;28;20281;-77
2022/04/01 01:55:51;;;;;;;3.00;1.27;;;;;;;;;;6159385;28;20238;-77
2022/04/01 01:59:14;;;;;;;2.50;1.43;;;;;;;;;;6142591;28;20235;-76
2022/04/01 02:02:35;;;;;;;2.37;1.17;;;;;;;;;;6142622;28;21584;-76
2022/04/01 02:05:56;;;;;;;1.70;1.60;;;;;;;;;;6157020;28;20242;-76
2022/04/01 02:09:17;;;;;;;1.57;1.37;;;;;;;;;;6155106;28;20293;-76
2022/04/01 02:12:41;;;;;;;3.00;2.03;;;;;;;;;;6142798;28;20578;-77
2022/04/01 02:16:04;;;;;;;4.97;1.97;;;;;;;;;;6141887;28;20227;-75
2022/04/01 02:19:25;;;;;;;1.80;1.43;;;;;;;;;;6148936;28;20238;-76
2022/04/01 02:22:45;;;;;;;2.50;1.13;;;;;;;;;;6144296;28;20230;-76
2022/04/01 02:26:09;;;;;;;1.90;0.90;;;;;;;;;;6155690;28;20616;-75
2022/04/01 02:29:30;;;;;;;2.17;1.33;;;;;;;;;;6148945;28;20230;-77
2022/04/01 02:33:28;;;;;;;1.87;1.40;;;;;;;;;;6153077;28;20553;-77
2022/04/01 02:36:53;;;;;;;2.70;0.97;;;;;;;;;;6142009;28;20230;-77
2022/04/01 02:40:15;;;;;;;1.30;1.00;;;;;;;;;;6144510;28;20254;-76
2022/04/01 02:43:36;;;;;;;1.50;1.20;;;;;;;;;;6147000;28;20246;-76
2022/04/01 02:46:57;;;;;;;2.53;1.23;;;;;;;;;;6143740;28;20266;-76
2022/04/01 02:50:20;;;;;;;1.30;0.97;;;;;;;;;;6142555;28;20238;-76
2022/04/01 02:53:41;;;;;;;2.90;1.30;;;;;;;;;;6156841;28;20238;-78
2022/04/01 02:57:02;;;;;;;1.30;1.20;;;;;;;;;;6113283;28;20231;-76
2022/04/01 03:00:24;;;;;;;3.13;1.30;;;;;;;;;;6141895;28;20636;-77
2022/04/01 03:03:52;;;;;;;0.80;0.80;;;;;;;;;;6130639;28;20231;-77
2022/04/01 03:07:19;;;;;;;3.40;1.13;;;;;;;;;;6145619;28;20239;-77
2022/04/01 03:10:42;;;;;;;2.93;1.43;;;;;;;;;;6140615;28;20238;-75
2022/04/01 03:14:04;;;;;;;1.53;1.00;;;;;;;;;;6141647;28;20272;-76
2022/04/01 03:17:55;;;;;;;1.30;1.10;;;;;;;;;;6156278;28;20601;-76
2022/04/01 03:21:29;;;;;;;3.70;2.43;;;;;;;;;;6141315;28;20242;-76
2022/04/01 03:24:52;;;;;;;3.13;1.37;;;;;;;;;;6142828;28;20239;-76
2022/04/01 03:28:13;;;;;;;1.30;1.20;;;;;;;;;;6157844;28;20667;-76
2022/04/01 03:31:35;;;;;;;2.67;1.50;;;;;;;;;;6141172;28;20282;-77
2022/04/01 03:34:57;;;;;;;2.57;1.43;;;;;;;;;;6139537;28;20214;-77
2022/04/01 03:38:19;;;;;;;1.83;1.47;;;;;;;;;;6150531;28;20247;-76
2022/04/01 03:41:43;;;;;;;3.03;1.33;;;;;;;;;;6128663;28;20248;-76
2022/04/01 03:45:06;;;;;;;3.30;1.70;;;;;;;;;;6139729;28;20222;-75
2022/04/01 03:49:02;;;;;;;2.63;1.90;;;;;;;;;;6153800;28;20218;-75
2022/04/01 03:52:25;;;;;;;3.97;3.20;;;;;;;;;;6143382;28;20230;-74
2022/04/01 03:55:47;;;;;;;3.27;1.87;;;;;;;;;;6142138;28;20227;-76
2022/04/01 03:59:41;;;;;;;1.80;1.70;;;;;;;;;;6155153;28;20513;-77
2022/04/01 04:03:32;;;;;;;2.43;1.83;;;;;;;;;;6153563;28;20230;-76
2022/04/01 04:06:55;;;;;;;3.03;1.97;;;;;;;;;;6156883;28;20238;-77
2022/04/01 04:10:18;;;;;;;3.10;2.73;;;;;;;;;;6146195;28;20234;-76
2022/04/01 04:14:03;;;;;;;5.37;4.87;;;;;;;;;;6157853;28;20250;-76
2022/04/01 04:17:32;;;;;;;5.13;3.57;;;;;;;;;;6138927;28;20234;-76
2022/04/01 04:21:08;;;;;;;2.13;2.00;;;;;;;;;;6142704;28;20230;-78
2022/04/01 04:24:42;;;;;;;5.03;4.00;;;;;;;;;;6146613;28;20230;-77
2022/04/01 04:28:08;;;;;;;3.13;2.03;;;;;;;;;;6148877;28;20230;-76
2022/04/01 04:31:31;;;;;;;4.90;2.20;;;;;;;;;;6144270;28;20409;-77
2022/04/01 04:34:58;;;;;;;2.40;2.20;;;;;;;;;;6153670;28;20230;-75
2022/04/01 04:38:20;;;;;;;2.77;2.37;;;;;;;;;;6159287;28;20286;-77
2022/04/01 04:41:42;;;;;;;2.37;1.90;;;;;;;;;;6139701;28;20230;-77
2022/04/01 04:45:05;;;;;;;2.27;2.07;;;;;;;;;;6144794;28;20245;-76
2022/04/01 04:48:28;;;;;;;2.17;2.07;;;;;;;;;;6145477;28;20636;-77
2022/04/01 04:51:53;;;;;;;3.97;2.80;;;;;;;;;;6148063;28;20226;-75
2022/04/01 04:55:37;;;;;;;4.63;2.40;;;;;;;;;;6154784;28;20231;-77
2022/04/01 04:59:02;;;;;;;4.40;2.40;;;;;;;;;;6155352;28;20238;-77
2022/04/01 05:02:33;;;;;;;2.70;2.37;;;;;;;;;;6152583;28;20238;-77
2022/04/01 05:05:57;;;;;;;5.17;2.37;;;;;;;;;;6147702;28;20616;-75
2022/04/01 05:09:27;;;;;;;3.57;2.53;;;;;;;;;;6156394;28;20282;-76
2022/04/01 05:12:59;;;;;;;2.83;2.53;;;;;;;;;;6150583;28;20238;-76
2022/04/01 05:16:52;;;;;;;3.60;3.30;;;;;;;;;;6153074;28;20226;-83
2022/04/01 05:20:18;;;;;;;3.93;2.17;;;;;;;;;;6146593;28;20225;-76
2022/04/01 05:23:54;;;;;;;4.67;2.97;;;;;;;;;;6143913;28;20234;-77
2022/04/01 05:27:22;;;;;;;3.70;3.40;;;;;;;;;;6117596;28;20226;-77
2022/04/01 05:31:04;;;;;;;2.80;2.57;;;;;;;;;;6137547;28;20238;-78
2022/04/01 05:34:34;;;;;;;5.20;2.40;;;;;;;;;;6128299;28;20352;-77
2022/04/01 05:37:55;;;;;;;2.63;2.30;;;;;;;;;;6148700;28;20230;-75
2022/04/01 05:41:19;;;;;;;3.00;2.30;;;;;;;;;;6144937;28;20628;-76
2022/04/01 05:44:43;;;;;;;3.50;2.80;;;;;;;;;;6146158;28;20234;-72
2022/04/01 05:48:09;;;;;;;5.80;2.43;;;;;;;;;;6129492;28;20243;-73
2022/04/01 05:51:31;;;;;;;4.13;2.97;;;;;;;;;;6128961;28;20263;-73
2022/04/01 05:54:52;;;;;;;4.83;3.13;;;;;;;;;;6139379;28;20238;-71
2022/04/01 05:58:14;;;;;;;4.70;3.47;;;;;;;;;;6159711;28;20953;-67
2022/04/01 06:01:42;;;;;;;4.43;3.37;;;;;;;;;;6146007;28;20237;-71
2022/04/01 06:05:13;;;;;;;4.23;3.40;;;;;;;;;;6146402;28;20235;-74
2022/04/01 06:08:44;;;;;;;9.17;3.50;;;;;;;;;;6143574;28;20241;-73
2022/04/01 06:12:12;;;;;;;4.77;4.27;;;;;;;;;;6149425;28;20238;-75
2022/04/01 06:16:04;;;;;;;3.43;3.10;;;;;;;;;;6152846;28;20508;-74
2022/04/01 06:19:46;;;;;;;4.87;3.50;;;;;;;;;;6153439;28;20234;-73
2022/04/01 06:23:09;;;;;;;6.93;4.20;;;;;;;;;;6126453;28;20258;-74
2022/04/01 06:26:35;;;;;;;4.33;3.70;;;;;;;;;;6137625;28;20581;-77
2022/04/01 06:30:05;;;;;;;4.33;3.37;;;;;;;;;;6148688;28;20494;-76
2022/04/01 06:33:32;;;;;;;4.13;3.73;;;;;;;;;;6152121;28;20258;-77
2022/04/01 06:37:17;;;;;;;8.67;5.43;;;;;;;;;;6152567;28;20230;-76
2022/04/01 06:40:48;;;;;;;7.90;4.10;;;;;;;;;;6147038;28;20230;-74
2022/04/01 06:44:13;;;;;;;5.17;4.07;;;;;;;;;;6139786;28;20253;-76
2022/04/01 06:48:09;;;;;;;5.17;3.00;;;;;;;;;;6100428;28;20237;-78
2022/04/01 06:51:50;;;;;;;5.20;4.60;;;;;;;;;;6167934;28;20230;-78
2022/04/01 06:55:18;;;;;;;4.87;4.13;;;;;;;;;;6150006;28;20709;-78
2022/04/01 06:58:56;;;;;;;3.13;2.57;;;;;;;;;;6145572;28;20234;-75
2022/04/01 07:02:17;;;;;;;3.63;3.03;;;;;;;;;;6150677;28;20250;-72
2022/04/01 07:05:39;;;;;;;5.57;3.63;;;;;;;;;;6161964;28;20222;-74
2022/04/01 07:09:00;;;;;;;4.10;3.03;;;;;;;;;;6158518;28;20274;-74
2022/04/01 07:12:24;;;;;;;3.80;3.43;;;;;;;;;;6164357;28;21343;-77
2022/04/01 07:15:45;;;;;;;3.77;3.43;;;;;;;;;;6151228;28;20226;-73
2022/04/01 07:19:06;;;;;;;3.03;2.83;;;;;;;;;;6156850;28;20231;-75
2022/04/01 07:22:27;;;;;;;7.67;4.47;;;;;;;;;;6162351;28;20250;-71
2022/04/01 07:25:48;;;;;;;7.70;3.13;;;;;;;;;;6150500;28;20264;-75
2022/04/01 07:29:10;;;;;;;3.70;2.70;;;;;;;;;;6150139;28;20760;-71
2022/04/01 07:32:33;;;;;;;5.10;2.63;;;;;;;;;;6147270;28;20325;-76
2022/04/01 07:35:54;;;;;;;3.57;2.77;;;;;;;;;;6159148;28;20238;-77
2022/04/01 07:39:16;;;;;;;5.37;3.37;;;;;;;;;;6164081;28;20219;-77
2022/04/01 07:42:38;;;;;;;5.23;4.27;;;;;;;;;;6165832;28;20230;-79
2022/04/01 07:46:00;;;;;;;5.33;3.27;;;;;;;;;;6149528;28;20513;-76
2022/04/01 07:49:21;;;;;;;5.80;3.20;;;;;;;;;;6157137;28;20226;-71
2022/04/01 07:53:22;;;;;;;3.93;3.53;;;;;;;;;;6129630;28;20235;-78
2022/04/01 07:56:43;;;;;;;3.37;3.07;;;;;;;;;;6163060;28;20619;-76
2022/04/01 08:00:06;;;;;;;4.57;3.13;;;;;;;;;;6163712;28;20234;-75
2022/04/01 08:03:35;;;;;;;3.53;3.23;;;;;;;;;;6157239;28;20577;-77
2022/04/01 08:06:56;;;;;;;5.30;3.97;;;;;;;;;;6145877;28;20620;-78
2022/04/01 08:10:17;;;;;;;6.87;5.10;;;;;;;;;;6156476;28;20301;-76
2022/04/01 08:13:38;;;;;;;4.83;4.07;;;;;;;;;;6164762;28;20600;-81
2022/04/01 08:16:59;;;;;;;3.77;3.33;;;;;;;;;;6162500;28;20514;-75
2022/04/01 08:20:21;;;;;;;4.90;3.00;;;;;;;;;;6167107;28;20517;-72
2022/04/01 08:23:43;;;;;;;3.73;3.43;;;;;;;;;;6171987;28;20230;-86
2022/04/01 08:27:04;;;;;;;5.10;4.07;;;;;;;;;;6149195;28;20223;-84
2022/04/01 08:30:28;;;;;;;4.57;3.53;;;;;;;;;;6134156;28;20238;-84
2022/04/01 08:33:53;;;;;;;4.87;3.77;;;;;;;;;;6151762;28;20319;-83
2022/04/01 08:37:15;;;;;;;6.33;4.00;;;;;;;;;;6163392;28;20222;-81
2022/04/01 08:40:36;;;;;;;5.57;4.07;;;;;;;;;;6168790;28;20496;-79
2022/04/01 08:43:57;;;;;;;3.90;2.93;;;;;;;;;;6153651;28;20501;-76
2022/04/01 08:47:18;;;;;;;5.30;3.43;;;;;;;;;;6161510;28;20250;-74
2022/04/01 08:50:41;;;;;;;4.97;3.57;;;;;;;;;;6150778;28;20227;-75
2022/04/01 08:54:04;;;;;;;4.03;3.63;;;;;;;;;;6150992;28;20230;-77
2022/04/01 08:57:25;;;;;;;4.87;3.40;;;;;;;;;;6142669;28;20219;-74
2022/04/01 09:00:46;;;;;;;6.10;3.20;;;;;;;;;;6166138;28;20314;-77
2022/04/01 09:04:21;;;;;;;5.17;4.00;;;;;;;;;;6161733;28;20227;-76
2022/04/01 09:07:42;;;;;;;6.17;3.33;;;;;;;;;;6134745;28;20234;-72
2022/04/01 09:11:06;;;;;;;3.17;2.87;;;;;;;;;;6165468;28;20223;-75
2022/04/01 09:14:27;;;;;;;3.53;3.23;;;;;;;;;;6162269;28;20238;-75
2022/04/01 09:17:48;;;;;;;3.93;3.47;;;;;;;;;;6159015;28;20617;-73
2022/04/01 09:21:11;;;;;;;3.17;2.87;;;;;;;;;;6163399;28;20332;-79
2022/04/01 09:24:35;;;;;;;4.20;3.10;;;;;;;;;;6166049;28;20230;-79
2022/04/01 09:27:57;;;;;;;4.00;3.53;;;;;;;;;;6160859;28;20577;-79
2022/04/01 09:31:19;;;;;;;3.87;2.80;;;;;;;;;;6149008;28;20227;-75
2022/04/01 09:34:40;;;;;;;6.67;3.60;;;;;;;;;;6167131;28;20234;-76
2022/04/01 09:38:04;;;;;;;3.43;3.13;;;;;;;;;;6164493;28;20874;-76
2022/04/01 09:41:33;;;;;;;3.07;2.87;;;;;;;;;;6171003;28;20219;-83
2022/04/01 09:45:00;;;;;;;3.33;3.00;;;;;;;;;;6172883;28;20672;-77
2022/04/01 09:48:21;;;;;;;4.53;2.60;;;;;;;;;;6162443;28;20616;-73
2022/04/01 09:51:44;;;;;;;3.37;2.27;;;;;;;;;;6157376;28;20226;-73
2022/04/01 09:55:06;;;;;;;2.80;2.40;;;;;;;;;;6147901;28;20234;-82
2022/04/01 09:58:26;;;;;;;6.43;5.03;;;;;;;;;;6164944;28;20494;-79
2022/04/01 10:01:49;;;;;;;3.27;2.90;;;;;;;;;;6148611;28;20262;-78
2022/04/01 10:05:10;;;;;;;3.27;2.93;;;;;;;;;;6147087;28;20234;-77
2022/04/01 10:08:32;;;;;;;3.42;3.03;;;;;;;;;;6159520;28;21445;-79
2022/04/01 10:11:53;;;;;;;4.30;3.03;;;;;;;;;;6152545;28;20215;-75
2022/04/01 10:15:15;;;;;;;6.53;3.37;;;;;;;;;;6160991;28;20227;-77
2022/04/01 10:18:41;;;;;;;3.03;2.53;;;;;;;;;;6157246;28;20226;-74
2022/04/01 10:22:02;;;;;;;6.53;5.90;;;;;;;;;;6134034;28;20600;-74
2022/04/01 10:25:31;;;;;;;4.70;2.93;;;;;;;;;;6170218;28;20237;-73
2022/04/01 10:28:52;;;;;;;3.20;2.20;;;;;;;;;;6170105;28;20250;-79
2022/04/01 10:32:27;;;;;;;4.43;2.87;;;;;;;;;;6159066;28;20241;-71
2022/04/01 10:35:49;;;;;;;4.07;3.73;;;;;;;;;;6149388;28;20226;-76
2022/04/01 10:39:11;;;;;;;5.20;2.33;;;;;;;;;;6149032;28;20234;-73
2022/04/01 10:42:33;;;;;;;2.70;2.50;;;;;;;;;;6152091;28;20616;-74
2022/04/01 10:45:59;;;;;;;3.43;2.37;;;;;;;;;;6137614;28;20238;-77
2022/04/01 10:53:40;;;;;;;3.80;2.30;;;;;;;;;;6152571;28;20309;-72
2022/04/01 10:57:05;;;;;;;3.13;2.33;;;;;;;;;;6155489;28;20235;-74
2022/04/01 11:00:29;;;;;;;2.43;2.13;;;;;;;;;;6152294;28;20301;-71
2022/04/01 11:03:52;;;;;;;5.20;2.37;;;;;;;;;;6143282;28;20625;-71
2022/04/01 11:07:14;;;;;;;4.60;2.30;;;;;;;;;;6157653;28;20238;-72
2022/04/01 11:10:36;;;;;;;2.23;2.00;;;;;;;;;;6151886;28;20230;-74
2022/04/01 11:14:05;;;;;;;2.50;2.30;;;;;;;;;;6148146;28;20241;-72
2022/04/01 11:17:27;;;;;;;4.03;2.23;;;;;;;;;;6150546;28;20230;-71
2022/04/01 11:20:56;;;;;;;2.10;1.90;;;;;;;;;;6161515;28;20242;-72
2022/04/01 11:24:29;;;;;;;2.33;2.10;;;;;;;;;;6155538;28;20514;-71
2022/04/01 11:27:53;;;;;;;2.83;2.10;;;;;;;;;;6159032;28;20227;-71
2022/04/01 11:31:17;;;;;;;2.00;1.80;;;;;;;;;;6148296;28;20534;-72
2022/04/01 11:34:57;;;;;;;4.23;2.47;;;;;;;;;;6158625;28;20313;-71
2022/04/01 11:38:20;;;;;;;5.83;3.00;;;;;;;;;;6164536;28;20679;-71
2022/04/01 11:41:48;;;;;;;4.13;2.77;;;;;;;;;;6165060;28;20238;-71
2022/04/01 11:45:10;;;;;;;4.03;2.97;;;;;;;;;;6159564;28;22046;-70
2022/04/01 11:48:34;;;;;;;3.10;2.50;;;;;;;;;;6160397;28;20815;-72
2022/04/01 11:51:55;;;;;;;2.40;2.20;;;;;;;;;;6150822;28;20640;-78
2022/04/01 11:55:17;;;;;;;2.03;1.87;;;;;;;;;;6155001;28;20238;-77
2022/04/01 11:58:52;;;;;;;2.20;2.00;;;;;;;;;;6164134;28;20255;-74
2022/04/01 12:02:16;;;;;;;2.60;2.30;;;;;;;;;;6148357;28;20238;-74
2022/04/01 12:05:39;;;;;;;2.83;2.60;;;;;;;;;;6140665;28;20227;-76
2022/04/01 12:09:01;;;;;;;2.30;2.17;;;;;;;;;;6136655;28;20222;-76
2022/04/01 12:12:23;;;;;;;4.37;2.53;;;;;;;;;;6146048;28;20322;-73
2022/04/01 12:15:46;;;;;;;5.03;2.30;;;;;;;;;;6141975;28;20722;-77
2022/04/01 12:19:14;;;;;;;1.53;1.43;;;;;;;;;;6153184;28;20230;-75
2022/04/01 12:22:40;;;;;;;4.70;2.57;;;;;;;;;;6148736;28;20237;-76
2022/04/01 12:26:01;;;;;;;2.20;2.00;;;;;;;;;;6158855;28;20627;-74
2022/04/01 12:29:24;;;;;;;3.00;2.33;;;;;;;;;;6158255;28;20318;-73
2022/04/01 12:32:54;;;;;;;2.67;2.40;;;;;;;;;;6150722;28;20317;-71
2022/04/01 12:36:19;;;;;;;3.40;1.93;;;;;;;;;;6167699;28;20230;-76
2022/04/01 12:39:44;;;;;;;4.73;2.30;;;;;;;;;;6158465;28;20231;-79
2022/04/01 12:43:04;;;;;;;5.13;2.20;;;;;;;;;;6163117;28;20250;-78
2022/04/01 12:46:30;;;;;;;2.23;2.00;;;;;;;;;;6156079;28;20238;-74
2022/04/01 12:49:50;;;;;;;4.30;2.50;;;;;;;;;;6156444;28;20596;-72
2022/04/01 12:53:15;;;;;;;3.30;2.23;;;;;;;;;;6156913;28;20247;-74
2022/04/01 12:56:37;;;;;;;4.23;2.40;;;;;;;;;;6157044;28;20503;-71
2022/04/01 12:59:58;;;;;;;2.50;2.30;;;;;;;;;;6154661;28;20239;-78
2022/04/01 13:03:23;;;;;;;3.17;2.37;;;;;;;;;;6144367;28;20230;-72
2022/04/01 13:07:08;;;;;;;2.93;2.63;;;;;;;;;;6171109;28;20535;-72
2022/04/01 13:10:30;;;;;;;3.23;2.40;;;;;;;;;;6156891;28;20259;-72
2022/04/01 13:13:53;;;;;;;4.37;2.90;;;;;;;;;;6161036;28;20227;-73
2022/04/01 13:17:16;;;;;;;3.70;2.70;;;;;;;;;;6153495;28;20537;-73
2022/04/01 13:20:36;;;;;;;1.93;1.83;;;;;;;;;;6119142;28;20300;-75
2022/04/01 13:23:57;;;;;;;3.63;2.53;;;;;;;;;;6153723;28;20242;-74
2022/04/01 13:27:20;;;;;;;4.87;3.00;;;;;;;;;;6151541;28;20321;-74
2022/04/01 13:30:41;;;;;;;2.30;2.00;;;;;;;;;;6138332;28;20234;-77
2022/04/01 13:34:02;;;;;;;4.47;2.70;;;;;;;;;;6137875;28;20225;-75
2022/04/01 13:37:23;;;;;;;2.60;2.40;;;;;;;;;;6156754;28;20234;-75
2022/04/01 13:40:46;;;;;;;3.43;1.67;;;;;;;;;;6157810;28;20231;-74
2022/04/01 13:44:08;;;;;;;2.90;2.67;;;;;;;;;;6165306;28;20238;-74
2022/04/01 13:47:29;;;;;;;3.20;1.80;;;;;;;;;;6158570;28;20238;-75
2022/04/01 13:50:53;;;;;;;1.93;1.83;;;;;;;;;;6167935;28;20231;-74
2022/04/01 13:54:14;;;;;;;3.43;2.07;;;;;;;;;;6161953;28;20242;-75
2022/04/01 13:57:35;;;;;;;3.87;2.90;;;;;;;;;;6165561;28;20241;-75
2022/04/01 14:00:57;;;;;;;3.40;2.27;;;;;;;;;;6165066;28;20227;-76
2022/04/01 14:04:19;;;;;;;3.10;2.20;;;;;;;;;;6164492;28;20234;-74
2022/04/01 14:07:41;;;;;;;3.20;2.13;;;;;;;;;;6166355;28;20234;-75
2022/04/01 14:11:02;;;;;;;2.47;1.80;;;;;;;;;;6161943;28;20313;-75
2022/04/01 14:14:23;;;;;;;2.30;2.10;;;;;;;;;;6151993;28;20239;-73
2022/04/01 14:17:45;;;;;;;3.37;2.50;;;;;;;;;;6145769;28;20488;-72
2022/04/01 14:21:06;;;;;;;2.53;2.30;;;;;;;;;;6141415;28;22616;-74
2022/04/01 14:24:29;;;;;;;3.00;2.07;;;;;;;;;;6147526;28;22251;-75
2022/04/01 14:27:50;;;;;;;2.87;2.00;;;;;;;;;;6146064;28;20223;-74
2022/04/01 14:31:11;;;;;;;2.70;1.90;;;;;;;;;;6145798;28;20989;-75
2022/04/01 14:34:35;;;;;;;3.23;2.13;;;;;;;;;;6149267;28;20498;-74
2022/04/01 14:37:57;;;;;;;3.00;2.73;;;;;;;;;;6138545;28;20242;-75
2022/04/01 14:41:19;;;;;;;4.00;3.20;;;;;;;;;;6140636;28;20234;-75
2022/04/01 14:44:40;;;;;;;4.13;3.07;;;;;;;;;;6135819;28;20250;-75
2022/04/01 14:48:00;;;;;;;6.87;4.13;;;;;;;;;;6145009;28;20246;-74
2022/04/01 14:51:23;;;;;;;6.23;4.97;;;;;;;;;;6145422;28;20235;-76
2022/04/01 14:54:44;;;;;;;7.57;5.37;;;;;;;;;;6141705;28;20230;-74
2022/04/01 14:58:06;;;;;;;6.00;4.20;;;;;;;;;;6137083;28;20580;-74
2022/04/01 15:01:27;;;;;;;4.77;4.37;;;;;;;;;;6129523;28;20242;-76
2022/04/01 15:04:48;;;;;;;3.30;2.67;;;;;;;;;;6141947;28;20230;-78
2022/04/01 15:08:10;;;;;;;4.37;3.33;;;;;;;;;;6143562;28;21112;-73
2022/04/01 15:11:31;;;;;;;5.83;4.20;;;;;;;;;;6118635;28;20231;-72
2022/04/01 15:14:51;;;;;;;3.37;2.63;;;;;;;;;;6139978;28;20235;-72
2022/04/01 15:18:12;;;;;;;6.43;4.33;;;;;;;;;;6141046;28;20597;-73
2022/04/01 15:21:34;;;;;;;5.50;3.10;;;;;;;;;;6148089;28;20613;-73
2022/04/01 15:24:57;;;;;;;2.97;2.30;;;;;;;;;;6152719;28;20239;-72
2022/04/01 15:28:18;;;;;;;2.83;2.40;;;;;;;;;;6151029;28;20231;-74
2022/04/01 15:31:39;;;;;;;2.67;1.90;;;;;;;;;;6149510;28;20227;-74
2022/04/01 15:35:00;;;;;;;3.10;2.20;;;;;;;;;;6150251;28;20234;-73
2022/04/01 15:38:25;;;;;;;2.20;2.00;;;;;;;;;;6115202;28;1075047;-74
2022/04/01 15:41:50;;;;;;;3.87;2.93;;;;;;;;;;6150326;28;20232;-73
2022/04/01 15:45:12;;;;;;;3.17;2.10;;;;;;;;;;6151613;28;20330;-73
2022/04/01 15:48:33;;;;;;;3.97;3.00;;;;;;;;;;6153573;28;20333;-73
2022/04/01 15:51:54;;;;;;;2.50;2.30;;;;;;;;;;6155639;28;20607;-73
2022/04/01 15:55:15;;;;;;;4.00;3.60;;;;;;;;;;6150166;28;20313;-73
2022/04/01 15:58:38;;;;;;;4.63;3.33;;;;;;;;;;6156549;28;20226;-74
2022/04/01 16:01:59;;;;;;;2.63;2.30;;;;;;;;;;6166711;28;20234;-73
2022/04/01 16:05:20;;;;;;;2.57;2.37;;;;;;;;;;6158652;28;20257;-73
2022/04/01 16:08:41;;;;;;;3.17;1.90;;;;;;;;;;6163815;28;20636;-74
2022/04/01 16:12:03;;;;;;;6.80;3.70;;;;;;;;;;6171797;28;20230;-73
2022/04/01 16:15:26;;;;;;;4.77;3.13;;;;;;;;;;6160485;28;20230;-72
2022/04/01 16:18:49;;;;;;;3.33;3.03;;;;;;;;;;6156851;28;20258;-74
2022/04/01 16:22:13;;;;;;;2.90;2.60;;;;;;;;;;6150008;28;20242;-77
2022/04/01 16:25:34;;;;;;;3.97;1.83;;;;;;;;;;6159916;28;20227;-74
2022/04/01 16:28:54;;;;;;;6.37;4.87;;;;;;;;;;6160481;28;20234;-73
2022/04/01 16:32:17;;;;;;;5.90;3.47;;;;;;;;;;6160522;28;20218;-73
2022/04/01 16:35:39;;;;;;;3.87;1.83;;;;;;;;;;6149129;28;20643;-74
2022/04/01 16:38:59;;;;;;;9.33;5.53;;;;;;;;;;6159171;28;20226;-73
2022/04/01 16:42:20;;;;;;;3.50;3.20;;;;;;;;;;6153877;28;20598;-73
2022/04/01 16:45:41;;;;;;;2.90;1.70;;;;;;;;;;6147833;28;20234;-75
2022/04/01 16:49:03;;;;;;;3.93;2.00;;;;;;;;;;6149817;28;20492;-74
2022/04/01 16:52:25;;;;;;;3.37;3.10;;;;;;;;;;6154452;28;20261;-74
2022/04/01 16:55:46;;;;;;;3.30;1.90;;;;;;;;;;6152213;28;20242;-74
2022/04/01 16:59:07;;;;;;;3.37;1.93;;;;;;;;;;6152089;28;20234;-73
2022/04/01 17:02:28;;;;;;;4.67;2.13;;;;;;;;;;6157846;28;20238;-73
2022/04/01 17:13:18;;;;;;;3.77;3.20;;;;;;;;;;6086962;28;20237;-74
2022/04/01 17:16:39;;;;;;;4.23;3.03;;;;;;;;;;6164677;28;20258;-73
2022/04/01 17:20:01;;;;;;;4.80;3.70;;;;;;;;;;6157630;28;20616;-73
2022/04/01 17:23:24;;;;;;;6.00;3.73;;;;;;;;;;6177434;28;20231;-73
2022/04/01 17:26:45;;;;;;;3.57;3.27;;;;;;;;;;6166533;28;20238;-74
2022/04/01 17:30:09;;;;;;;7.73;4.23;;;;;;;;;;6154930;28;20254;-73
2022/04/01 17:33:30;;;;;;;3.03;2.07;;;;;;;;;;6148906;28;20614;-73
2022/04/01 17:36:51;;;;;;;3.90;2.30;;;;;;;;;;6153929;28;20230;-73
2022/04/01 17:40:17;;;;;;;2.53;2.33;;;;;;;;;;6157383;28;20325;-73
2022/04/01 17:43:38;;;;;;;3.37;1.70;;;;;;;;;;6157986;28;20375;-74
2022/04/01 17:46:58;;;;;;;2.37;1.83;;;;;;;;;;6141135;28;20273;-73
2022/04/01 17:50:20;;;;;;;4.93;4.30;;;;;;;;;;6138431;28;20247;-72
2022/04/01 17:53:40;;;;;;;14.27;4.20;;;;;;;;;;6132949;28;20231;-71
2022/04/01 17:57:03;;;;;;;3.07;2.10;;;;;;;;;;6135758;28;20234;-71
2022/04/01 18:00:24;;;;;;;4.53;2.60;;;;;;;;;;6144018;28;20254;-71
2022/04/01 18:03:48;;;;;;;4.20;2.93;;;;;;;;;;6144081;28;20235;-70
2022/04/01 18:07:10;;;;;;;5.00;4.60;;;;;;;;;;6143289;28;20250;-70
2022/04/01 18:10:32;;;;;;;4.43;2.60;;;;;;;;;;6145970;28;20234;-70
2022/04/01 18:13:55;;;;;;;3.73;2.63;;;;;;;;;;6148840;28;20236;-69
2022/04/01 18:17:16;;;;;;;2.87;1.70;;;;;;;;;;6156235;28;20242;-71
2022/04/01 18:20:38;;;;;;;3.03;1.63;;;;;;;;;;6158318;28;20235;-71
2022/04/01 18:23:59;;;;;;;3.97;1.43;;;;;;;;;;6160791;28;20239;-68
2022/04/01 18:27:29;;;;;;;2.40;2.20;;;;;;;;;;6157863;28;20243;-71
2022/04/01 18:30:56;;;;;;;5.93;4.60;;;;;;;;;;6157131;28;20246;-70
2022/04/01 18:34:19;;;;;;;4.13;2.47;;;;;;;;;;6155043;28;20305;-71
2022/04/01 18:37:42;;;;;;;4.47;4.07;;;;;;;;;;6153960;28;20235;-72
2022/04/01 18:41:05;;;;;;;6.87;3.83;;;;;;;;;;6147746;28;20233;-70
2022/04/01 18:44:26;;;;;;;6.43;3.90;;;;;;;;;;6158044;28;20571;-70
2022/04/01 18:47:48;;;;;;;4.87;2.97;;;;;;;;;;6158950;28;20553;-69
2022/04/01 18:51:09;;;;;;;5.83;5.03;;;;;;;;;;6163659;28;20226;-71
2022/04/01 18:54:30;;;;;;;4.57;3.43;;;;;;;;;;6132505;28;20234;-66
2022/04/01 18:57:51;;;;;;;6.47;4.43;;;;;;;;;;6157467;28;20230;-73
2022/04/01 19:01:13;;;;;;;3.20;1.87;;;;;;;;;;6145281;28;20257;-71
2022/04/01 19:04:41;;;;;;;2.20;1.87;;;;;;;;;;6150587;28;20231;-71
2022/04/01 19:08:12;;;;;;;2.70;1.73;;;;;;;;;;6151486;28;20587;-71
2022/04/01 19:11:37;;;;;;;3.30;1.73;;;;;;;;;;6151531;28;20230;-71
2022/04/01 19:14:59;;;;;;;2.13;1.47;;;;;;;;;;6156815;28;20250;-72
2022/04/01 19:18:21;;;;;;;2.13;1.60;;;;;;;;;;6165349;28;20604;-72
2022/04/01 19:21:44;;;;;;;3.03;2.63;;;;;;;;;;6156774;28;20226;-71
2022/04/01 19:25:06;;;;;;;5.70;4.10;;;;;;;;;;6153055;28;20227;-73
2022/04/01 19:28:28;;;;;;;4.30;3.40;;;;;;;;;;6152089;28;20231;-71
2022/04/01 19:31:49;;;;;;;4.27;2.80;;;;;;;;;;6153065;28;20226;-71
2022/04/01 19:35:10;;;;;;;5.03;4.20;;;;;;;;;;6159134;28;20329;-71
2022/04/01 19:38:32;;;;;;;6.40;3.83;;;;;;;;;;6156516;28;20253;-71
2022/04/01 19:41:53;;;;;;;3.97;3.43;;;;;;;;;;6147295;28;20227;-71
2022/04/01 19:45:14;;;;;;;3.87;2.40;;;;;;;;;;6155278;28;20257;-71
2022/04/01 19:48:35;;;;;;;4.40;2.70;;;;;;;;;;6149280;28;20238;-72
2022/04/01 19:51:58;;;;;;;4.23;3.03;;;;;;;;;;6147634;28;20242;-71
2022/04/01 19:55:20;;;;;;;6.17;5.57;;;;;;;;;;6156727;28;20237;-70
2022/04/01 19:58:41;;;;;;;4.70;3.70;;;;;;;;;;6161598;28;20246;-70
2022/04/01 20:02:02;;;;;;;5.63;2.00;;;;;;;;;;6149404;28;20235;-71
2022/04/01 20:05:23;;;;;;;1.77;1.40;;;;;;;;;;6152566;28;20260;-72
2022/04/01 20:08:44;;;;;;;3.43;2.13;;;;;;;;;;6159733;28;20230;-71
2022/04/01 20:12:08;;;;;;;2.87;1.93;;;;;;;;;;6146502;28;20238;-71
2022/04/01 20:15:32;;;;;;;3.50;2.20;;;;;;;;;;6153995;28;20239;-72
2022/04/01 20:18:53;;;;;;;3.03;2.40;;;;;;;;;;6160300;28;20821;-72
2022/04/01 20:22:14;;;;;;;3.13;1.77;;;;;;;;;;6154894;28;20513;-70
2022/04/01 20:25:35;;;;;;;2.30;1.93;;;;;;;;;;6152160;28;20227;-71
2022/04/01 20:28:58;;;;;;;5.20;2.43;;;;;;;;;;6153240;28;20231;-71
2022/04/01 20:32:19;;;;;;;2.20;1.63;;;;;;;;;;6156227;28;20234;-71
2022/04/01 20:35:40;;;;;;;2.80;2.20;;;;;;;;;;6157648;28;20933;-71
2022/04/01 20:39:01;;;;;;;1.77;1.67;;;;;;;;;;6154388;28;20226;-71